Terminal Aerodrome Forecast
Issued by NWS Buffalo, NY

Home | Current Version | Previous Version | Text Only | Print | Product List | Glossary On
Versions: 1 2 3 4 5 6 7 8 9 10 11 12 13 14 15 16 17 18 19 20 21 22 23 24 25 26 27 28
000
FTUS41 KBUF 221800 AAA
TAFBUF
TAF AMD
KBUF 221827Z 2218/2318 27010KT P6SM BKN035 OVC040
     FM230000 27008KT P6SM BKN035
     FM230100 27007KT P6SM BKN250
     FM230600 23005KT P6SM SCT250
     FM230800 22005KT P6SM BKN080
     FM231400 24009KT P6SM SCT080=

USA.gov is the U.S. government's official web portal to all federal, state and local government web resources and services.